Time;durP1;ratioP1;P1;durP2;ratioP2;P2;SDS_P1;SDS_P2;PMS_P1;PMS_P2;Temp;Humidity;BMP_temperature;BMP_pressure;BME280_temperature;BME280_humidity;BME280_pressure;Samples;Min_cycle;Max_cycle;Signal;HPM_P1;HPM_P2
2021/08/09 00:01:30;;;;;;;2.25;1.00;;;;;;;-144.51;100.00;69251.94;4972432;28;20489;-70
2021/08/09 00:04:15;;;;;;;1.73;0.93;;;;;;;-144.51;100.00;69251.94;4972601;28;20401;-70
2021/08/09 00:07:00;;;;;;;1.52;1.05;;;;;;;-144.51;100.00;69251.94;4957847;28;20039;-70
2021/08/09 00:09:45;;;;;;;4.13;1.13;;;;;;;-144.51;100.00;69251.94;4967357;28;20047;-70
2021/08/09 00:12:30;;;;;;;2.22;1.40;;;;;;;-144.51;100.00;69251.94;4974168;28;20047;-70
2021/08/09 00:15:15;;;;;;;3.10;1.17;;;;;;;-144.51;100.00;69251.94;4976335;28;20054;-69
2021/08/09 00:18:00;;;;;;;5.78;1.02;;;;;;;-144.51;100.00;69251.94;4973651;28;20046;-70
2021/08/09 00:20:45;;;;;;;3.50;1.23;;;;;;;-144.51;100.00;69251.94;4970221;28;20039;-70
2021/08/09 00:23:30;;;;;;;9.38;1.50;;;;;;;-144.51;100.00;69251.94;4976628;28;20416;-70
2021/08/09 00:26:16;;;;;;;3.78;1.00;;;;;;;-144.51;100.00;69251.94;4975284;28;20055;-70
2021/08/09 00:29:03;;;;;;;4.40;1.20;;;;;;;-144.51;100.00;69251.94;4954090;28;20047;-69
2021/08/09 00:31:48;;;;;;;5.75;1.42;;;;;;;-144.51;100.00;69251.94;4968412;28;20512;-70
2021/08/09 00:34:34;;;;;;;3.67;1.23;;;;;;;-144.51;100.00;69251.94;4974332;28;20042;-70
2021/08/09 00:37:20;;;;;;;3.40;1.75;;;;;;;-144.51;100.00;69251.94;4957903;28;20043;-70
2021/08/09 00:40:06;;;;;;;9.48;0.93;;;;;;;-144.51;100.00;69251.94;4962276;28;20047;-70
2021/08/09 00:42:51;;;;;;;5.38;1.60;;;;;;;-144.51;100.00;69251.94;4955822;28;20038;-70
2021/08/09 00:45:36;;;;;;;6.90;1.27;;;;;;;-144.51;100.00;69251.94;4957744;28;20409;-70
2021/08/09 00:48:21;;;;;;;6.65;1.30;;;;;;;-144.51;100.00;69251.94;4964840;28;20409;-70
2021/08/09 00:51:09;;;;;;;9.15;1.67;;;;;;;-144.51;100.00;69251.94;4961872;28;20385;-70
2021/08/09 00:53:54;;;;;;;4.97;1.33;;;;;;;-144.51;100.00;69251.94;4974654;28;20047;-70
2021/08/09 00:56:40;;;;;;;3.20;1.20;;;;;;;-144.51;100.00;69251.94;4977597;28;20055;-70
2021/08/09 00:59:27;;;;;;;3.35;1.70;;;;;;;-144.51;100.00;69251.94;4965666;28;20046;-70
2021/08/09 01:02:13;;;;;;;3.50;1.75;;;;;;;-144.51;100.00;69251.94;4963856;28;20701;-70
2021/08/09 01:05:04;;;;;;;8.65;2.15;;;;;;;-144.51;100.00;69251.94;4971153;28;20047;-70
2021/08/09 01:07:59;;;;;;;5.88;1.52;;;;;;;-144.51;100.00;69251.94;4967226;28;20047;-70
2021/08/09 01:10:56;;;;;;;3.45;1.48;;;;;;;-144.51;100.00;69251.94;4959631;28;20070;-70
2021/08/09 01:14:18;;;;;;;5.57;1.88;;;;;;;-144.51;100.00;69251.94;4964700;28;20043;-70
2021/08/09 01:17:07;;;;;;;2.97;1.35;;;;;;;-144.51;100.00;69251.94;4961182;28;20504;-70
2021/08/09 01:20:11;;;;;;;4.65;1.35;;;;;;;-144.51;100.00;69251.94;4964417;28;20038;-70
2021/08/09 01:23:33;;;;;;;6.07;1.65;;;;;;;-144.51;100.00;69251.94;4960229;28;20046;-70
2021/08/09 01:26:37;;;;;;;7.40;2.35;;;;;;;-144.51;100.00;69251.94;4970653;28;20492;-71
2021/08/09 01:29:31;;;;;;;5.13;1.63;;;;;;;-144.51;100.00;69251.94;4965457;28;20047;-70
2021/08/09 01:32:21;;;;;;;6.57;2.33;;;;;;;-144.51;100.00;69251.94;4976672;28;20042;-70
2021/08/09 01:35:08;;;;;;;5.82;2.17;;;;;;;-144.51;100.00;69251.94;4963134;28;20787;-70
2021/08/09 01:37:58;;;;;;;6.20;2.00;;;;;;;-144.51;100.00;69251.94;4961734;28;20046;-70
2021/08/09 01:40:47;;;;;;;4.00;1.77;;;;;;;-144.51;100.00;69251.94;4964783;28;20046;-70
2021/08/09 01:43:34;;;;;;;11.80;2.75;;;;;;;-144.51;100.00;69251.94;4960355;28;20042;-70
2021/08/09 01:46:22;;;;;;;5.45;2.17;;;;;;;-144.51;100.00;69251.94;4972976;28;20054;-70
2021/08/09 01:49:07;;;;;;;4.30;2.03;;;;;;;-144.51;100.00;69251.94;4978067;28;20046;-70
2021/08/09 01:51:53;;;;;;;7.30;2.20;;;;;;;-144.51;100.00;69251.94;4961023;28;20051;-70
2021/08/09 01:54:40;;;;;;;6.30;1.98;;;;;;;-144.51;100.00;69251.94;4959416;28;20508;-70
2021/08/09 01:57:28;;;;;;;14.25;2.65;;;;;;;-144.51;100.00;69251.94;4971953;28;20587;-70
2021/08/09 02:00:16;;;;;;;4.05;2.28;;;;;;;-144.51;100.00;69251.94;4960911;28;20501;-70
2021/08/09 02:03:01;;;;;;;9.88;3.28;;;;;;;-144.51;100.00;69251.94;4984662;28;20084;-70
2021/08/09 02:05:49;;;;;;;5.93;2.22;;;;;;;-144.51;100.00;69251.94;4963540;28;20043;-70
2021/08/09 02:08:35;;;;;;;13.05;2.50;;;;;;;-144.51;100.00;69251.94;4964776;28;20046;-68
2021/08/09 02:11:45;;;;;;;4.57;1.95;;;;;;;-144.51;100.00;69251.94;4964827;28;20043;-70
2021/08/09 02:14:33;;;;;;;4.65;2.55;;;;;;;-144.51;100.00;69251.94;4963812;28;20416;-70
2021/08/09 02:17:27;;;;;;;8.15;2.20;;;;;;;-144.51;100.00;69251.94;4961530;28;20039;-72
2021/08/09 02:20:30;;;;;;;9.10;2.85;;;;;;;-144.51;100.00;69251.94;4963082;28;20038;-72
2021/08/09 02:23:21;;;;;;;6.05;2.85;;;;;;;-144.51;100.00;69251.94;4960836;28;20043;-70
2021/08/09 02:26:07;;;;;;;15.20;2.55;;;;;;;-144.51;100.00;69251.94;4963688;28;20042;-70
2021/08/09 02:28:55;;;;;;;7.20;2.50;;;;;;;-144.51;100.00;69251.94;4961904;28;20035;-70
2021/08/09 02:31:43;;;;;;;7.68;2.83;;;;;;;-144.51;100.00;69251.94;4961558;28;20043;-70
2021/08/09 02:34:32;;;;;;;5.97;3.22;;;;;;;-144.51;100.00;69251.94;4979924;28;20051;-70
2021/08/09 02:37:17;;;;;;;7.85;2.83;;;;;;;-144.51;100.00;69251.94;4978143;28;20513;-70
2021/08/09 02:40:03;;;;;;;14.75;3.20;;;;;;;-144.51;100.00;69251.94;4960090;28;20035;-70
2021/08/09 02:42:49;;;;;;;8.85;3.58;;;;;;;-144.51;100.00;69251.94;4974321;28;20047;-70
2021/08/09 02:45:35;;;;;;;8.43;3.22;;;;;;;-144.51;100.00;69251.94;4976655;28;20039;-71
2021/08/09 02:48:20;;;;;;;9.82;2.90;;;;;;;-144.51;100.00;69251.94;4961688;28;20050;-71
2021/08/09 02:51:06;;;;;;;7.28;3.42;;;;;;;-144.51;100.00;69251.94;4963055;28;20046;-71
2021/08/09 02:53:53;;;;;;;8.63;2.67;;;;;;;-144.51;100.00;69251.94;4961178;28;20047;-72
2021/08/09 02:56:38;;;;;;;5.72;3.03;;;;;;;-144.51;100.00;69251.94;4959209;28;20409;-71
2021/08/09 02:59:23;;;;;;;11.93;2.80;;;;;;;-144.51;100.00;69251.94;4963969;28;20051;-71
2021/08/09 03:02:11;;;;;;;6.30;3.10;;;;;;;-144.51;100.00;69251.94;4961436;28;20417;-70
2021/08/09 03:04:59;;;;;;;10.00;2.42;;;;;;;-144.51;100.00;69251.94;4957499;28;20047;-70
2021/08/09 03:07:45;;;;;;;6.55;2.45;;;;;;;-144.51;100.00;69251.94;4961614;28;20043;-70
2021/08/09 03:10:30;;;;;;;6.10;3.03;;;;;;;-144.51;100.00;69251.94;4961793;28;20042;-70
2021/08/09 03:13:23;;;;;;;5.03;2.85;;;;;;;-144.51;100.00;69251.94;4960683;28;20528;-70
2021/08/09 03:16:08;;;;;;;8.38;3.35;;;;;;;-144.51;100.00;69251.94;4964510;28;20118;-70
2021/08/09 03:18:54;;;;;;;5.95;3.22;;;;;;;-144.51;100.00;69251.94;4962179;28;20047;-70
2021/08/09 03:21:38;;;;;;;8.20;3.55;;;;;;;-144.51;100.00;69251.94;4974047;28;20039;-71
2021/08/09 03:24:26;;;;;;;9.25;3.13;;;;;;;-144.51;100.00;69251.94;4973426;28;20035;-71
2021/08/09 03:27:12;;;;;;;6.43;2.67;;;;;;;-144.51;100.00;69251.94;4974329;28;20050;-71
2021/08/09 03:29:57;;;;;;;13.43;3.50;;;;;;;-144.51;100.00;69251.94;4959833;28;20047;-71
2021/08/09 03:32:42;;;;;;;10.18;3.40;;;;;;;-144.51;100.00;69251.94;4972593;28;20512;-71
2021/08/09 03:35:27;;;;;;;13.73;3.58;;;;;;;-144.51;100.00;69251.94;4968355;28;20039;-71
2021/08/09 03:38:13;;;;;;;8.77;2.90;;;;;;;-144.51;100.00;69251.94;4961268;28;20438;-71
2021/08/09 03:40:58;;;;;;;7.75;2.70;;;;;;;-144.51;100.00;69251.94;4971642;28;20043;-71
2021/08/09 03:43:43;;;;;;;9.77;2.80;;;;;;;-144.51;100.00;69251.94;4975994;28;20501;-70
2021/08/09 03:46:28;;;;;;;8.80;3.25;;;;;;;-144.51;100.00;69251.94;4963281;28;20493;-70
2021/08/09 03:49:12;;;;;;;4.97;3.15;;;;;;;-144.51;100.00;69251.94;4970578;28;20043;-70
2021/08/09 03:51:57;;;;;;;6.30;3.22;;;;;;;-144.51;100.00;69251.94;4960751;28;20043;-69
2021/08/09 03:54:42;;;;;;;5.45;2.67;;;;;;;-144.51;100.00;69251.94;4952461;28;20047;-70
2021/08/09 03:57:27;;;;;;;10.07;2.28;;;;;;;-144.51;100.00;69251.94;4954145;28;20039;-70
2021/08/09 04:00:13;;;;;;;5.03;3.15;;;;;;;-144.51;100.00;69251.94;4964692;28;20046;-71
2021/08/09 04:02:58;;;;;;;7.68;2.80;;;;;;;-144.51;100.00;69251.94;4971175;28;20047;-71
2021/08/09 04:05:51;;;;;;;5.85;2.20;;;;;;;-144.51;100.00;69251.94;4956679;28;20038;-70
2021/08/09 04:08:40;;;;;;;5.68;2.58;;;;;;;-144.51;100.00;69251.94;4959457;28;20708;-70
2021/08/09 04:11:26;;;;;;;5.40;2.20;;;;;;;-144.51;100.00;69251.94;4958602;28;20055;-70
2021/08/09 04:14:11;;;;;;;7.18;2.55;;;;;;;-144.51;100.00;69251.94;4958983;28;20540;-70
2021/08/09 04:16:56;;;;;;;12.07;2.00;;;;;;;-144.51;100.00;69251.94;4972798;28;20047;-70
2021/08/09 04:19:41;;;;;;;4.20;1.70;;;;;;;-144.51;100.00;69251.94;4969228;28;20042;-70
2021/08/09 04:22:26;;;;;;;3.47;1.85;;;;;;;-144.51;100.00;69251.94;4951654;28;20047;-70
2021/08/09 04:25:11;;;;;;;4.22;2.00;;;;;;;-144.51;100.00;69251.94;4961037;28;20030;-70
2021/08/09 04:27:56;;;;;;;6.78;2.38;;;;;;;-144.51;100.00;69251.94;4964111;28;20845;-71
2021/08/09 04:30:42;;;;;;;8.45;2.60;;;;;;;-144.51;100.00;69251.94;4978103;28;20042;-70
2021/08/09 04:33:27;;;;;;;9.25;2.38;;;;;;;-144.51;100.00;69251.94;4977024;28;20059;-70
2021/08/09 04:36:13;;;;;;;7.63;2.60;;;;;;;-144.51;100.00;69251.94;4959790;28;20047;-70
2021/08/09 04:38:58;;;;;;;10.98;2.42;;;;;;;-144.51;100.00;69251.94;4958468;28;20414;-69
2021/08/09 04:41:43;;;;;;;3.50;2.13;;;;;;;-144.51;100.00;69251.94;4979230;28;20046;-70
2021/08/09 04:44:28;;;;;;;6.75;2.33;;;;;;;-144.51;100.00;69251.94;4986377;28;20047;-70
2021/08/09 04:47:13;;;;;;;6.95;2.17;;;;;;;-144.51;100.00;69251.94;4954961;28;20405;-70
2021/08/09 04:49:58;;;;;;;6.82;1.95;;;;;;;-144.51;100.00;69251.94;4983752;28;20046;-71
2021/08/09 04:52:43;;;;;;;9.48;2.30;;;;;;;-144.51;100.00;69251.94;4970094;28;20047;-69
2021/08/09 04:55:33;;;;;;;5.75;2.17;;;;;;;-144.51;100.00;69251.94;4963709;28;20042;-70
2021/08/09 04:58:19;;;;;;;29.35;4.60;;;;;;;-144.51;100.00;69251.94;4961402;28;20038;-70
2021/08/09 05:01:08;;;;;;;38.05;2.88;;;;;;;-144.51;100.00;69251.94;4960688;28;20050;-70
2021/08/09 05:03:54;;;;;;;7.20;3.00;;;;;;;-144.51;100.00;69251.94;4958190;28;20043;-70
2021/08/09 05:06:43;;;;;;;13.98;3.05;;;;;;;-144.51;100.00;69251.94;4971458;28;20046;-70
2021/08/09 05:09:28;;;;;;;6.22;2.75;;;;;;;-144.51;100.00;69251.94;4955825;28;20519;-69
2021/08/09 05:12:13;;;;;;;9.98;2.58;;;;;;;-144.51;100.00;69251.94;4966284;28;20047;-69
2021/08/09 05:15:01;;;;;;;8.52;2.55;;;;;;;-144.51;100.00;69251.94;4970578;28;20046;-69
2021/08/09 05:17:46;;;;;;;7.50;2.35;;;;;;;-144.51;100.00;69251.94;4971366;28;20092;-69
2021/08/09 05:20:31;;;;;;;6.88;2.35;;;;;;;-144.51;100.00;69251.94;4976034;28;20043;-69
2021/08/09 05:23:17;;;;;;;9.82;3.03;;;;;;;-144.51;100.00;69251.94;4965099;28;20463;-69
2021/08/09 05:26:02;;;;;;;15.73;2.33;;;;;;;-144.51;100.00;69251.94;4969630;28;20038;-70
2021/08/09 05:28:48;;;;;;;2.83;1.95;;;;;;;-144.51;100.00;69251.94;4955068;28;20423;-70
2021/08/09 05:31:35;;;;;;;7.75;2.70;;;;;;;-144.51;100.00;69251.94;4969610;28;20038;-69
2021/08/09 05:34:20;;;;;;;10.95;2.10;;;;;;;-144.51;100.00;69251.94;4970579;28;20046;-70
2021/08/09 05:37:05;;;;;;;10.88;2.55;;;;;;;-144.51;100.00;69251.94;4972472;28;20038;-70
2021/08/09 05:39:52;;;;;;;15.18;2.88;;;;;;;-144.51;100.00;69251.94;4968037;28;20046;-70
2021/08/09 05:42:38;;;;;;;9.50;2.42;;;;;;;-144.51;100.00;69251.94;4968364;28;20071;-70
2021/08/09 05:45:23;;;;;;;10.95;2.15;;;;;;;-144.51;100.00;69251.94;4967567;28;20047;-70
2021/08/09 05:48:08;;;;;;;17.60;2.00;;;;;;;-144.51;100.00;69251.94;4964226;28;20046;-70
2021/08/09 05:50:53;;;;;;;8.52;2.10;;;;;;;-144.51;100.00;69251.94;4963502;28;20046;-70
2021/08/09 05:53:38;;;;;;;8.65;2.50;;;;;;;-144.51;100.00;69251.94;4962639;28;20031;-70
2021/08/09 05:56:25;;;;;;;16.15;2.33;;;;;;;-144.51;100.00;69251.94;4956736;28;20086;-71
2021/08/09 05:59:16;;;;;;;12.73;1.88;;;;;;;-144.51;100.00;69251.94;4977229;28;20046;-70
2021/08/09 06:02:03;;;;;;;5.72;1.65;;;;;;;-144.51;100.00;69251.94;4967842;28;20035;-70
2021/08/09 06:04:47;;;;;;;13.15;2.45;;;;;;;-144.51;100.00;69251.94;4988325;28;20046;-69
2021/08/09 06:07:32;;;;;;;9.05;2.88;;;;;;;-144.51;100.00;69251.94;4974420;28;20485;-70
2021/08/09 06:10:23;;;;;;;10.25;2.38;;;;;;;-144.51;100.00;69251.94;4972588;28;20034;-70
2021/08/09 06:13:09;;;;;;;10.23;2.25;;;;;;;-144.51;100.00;69251.94;4962743;28;20050;-70
2021/08/09 06:15:54;;;;;;;9.65;2.72;;;;;;;-144.51;100.00;69251.94;4980913;28;20055;-70
2021/08/09 06:18:42;;;;;;;12.18;3.10;;;;;;;-144.51;100.00;69251.94;4968302;28;20046;-70
2021/08/09 06:21:27;;;;;;;12.27;3.00;;;;;;;-144.51;100.00;69251.94;4958098;28;20050;-69
2021/08/09 06:24:12;;;;;;;12.10;3.10;;;;;;;-144.51;100.00;69251.94;4962459;28;20043;-69
2021/08/09 06:27:02;;;;;;;11.05;3.10;;;;;;;-144.51;100.00;69251.94;4958820;28;20031;-69
2021/08/09 06:29:47;;;;;;;7.60;3.40;;;;;;;-144.51;100.00;69251.94;4959608;28;20043;-69
2021/08/09 06:32:32;;;;;;;6.68;3.13;;;;;;;-144.51;100.00;69251.94;4961454;28;20047;-69
2021/08/09 06:35:17;;;;;;;6.03;3.13;;;;;;;-144.51;100.00;69251.94;4980591;28;20488;-69
2021/08/09 06:38:07;;;;;;;13.75;4.85;;;;;;;-144.51;100.00;69251.94;4972338;28;20046;-69
2021/08/09 06:40:52;;;;;;;8.70;3.00;;;;;;;-144.51;100.00;69251.94;4962133;28;20046;-69
2021/08/09 06:43:38;;;;;;;6.60;3.47;;;;;;;-144.51;100.00;69251.94;4961609;28;20050;-69
2021/08/09 06:46:30;;;;;;;11.20;3.20;;;;;;;-144.51;100.00;69251.94;4973938;28;20046;-69
2021/08/09 06:49:15;;;;;;;5.93;2.92;;;;;;;-144.51;100.00;69251.94;4961846;28;20429;-68
2021/08/09 06:52:00;;;;;;;6.13;2.55;;;;;;;-144.51;100.00;69251.94;4955745;28;20413;-67
2021/08/09 06:54:48;;;;;;;9.60;3.30;;;;;;;-144.51;100.00;69251.94;4955327;28;20043;-67
2021/08/09 06:57:37;;;;;;;15.77;3.95;;;;;;;-144.51;100.00;69251.94;4975722;28;20042;-67
2021/08/09 07:00:22;;;;;;;15.82;4.00;;;;;;;-144.51;100.00;69251.94;4976157;28;20496;-67
2021/08/09 07:03:09;;;;;;;12.52;4.05;;;;;;;-144.51;100.00;69251.94;4980708;28;20431;-68
2021/08/09 07:05:55;;;;;;;8.32;2.90;;;;;;;-144.51;100.00;69251.94;4993941;28;20034;-68
2021/08/09 07:08:43;;;;;;;11.23;4.05;;;;;;;-144.51;100.00;69251.94;4980843;28;20042;-68
2021/08/09 07:11:29;;;;;;;9.63;3.78;;;;;;;-144.51;100.00;69251.94;4961943;28;20500;-68
2021/08/09 07:14:18;;;;;;;11.43;4.18;;;;;;;-144.51;100.00;69251.94;4976318;28;20047;-68
2021/08/09 07:17:04;;;;;;;20.33;4.22;;;;;;;-144.51;100.00;69251.94;4975989;28;20050;-68
2021/08/09 07:19:50;;;;;;;11.20;3.47;;;;;;;-144.51;100.00;69251.94;4959863;28;20513;-68
2021/08/09 07:22:46;;;;;;;10.98;4.00;;;;;;;-144.51;100.00;69251.94;4972521;28;20043;-68
2021/08/09 07:25:33;;;;;;;7.93;3.70;;;;;;;-144.51;100.00;69251.94;4966014;28;20035;-69
2021/08/09 07:28:19;;;;;;;13.02;4.18;;;;;;;-144.51;100.00;69251.94;4954102;28;20043;-70
2021/08/09 07:31:04;;;;;;;16.52;3.25;;;;;;;-144.51;100.00;69251.94;4944054;28;20047;-70
2021/08/09 07:33:52;;;;;;;13.02;3.50;;;;;;;-144.51;100.00;69251.94;4952789;28;20416;-71
2021/08/09 07:36:39;;;;;;;12.07;3.25;;;;;;;-144.51;100.00;69251.94;4970076;28;20436;-70
2021/08/09 07:39:24;;;;;;;14.43;3.42;;;;;;;-144.51;100.00;69251.94;4946679;28;20581;-69
2021/08/09 07:42:09;;;;;;;14.60;3.20;;;;;;;-144.51;100.00;69251.94;4954439;29;20043;-69
2021/08/09 07:44:56;;;;;;;13.25;3.58;;;;;;;-144.51;100.00;69251.94;4955049;28;20035;-70
2021/08/09 07:47:41;;;;;;;12.57;3.65;;;;;;;-144.51;100.00;69251.94;4959887;28;20413;-70
2021/08/09 07:50:26;;;;;;;25.05;4.57;;;;;;;-144.51;100.00;69251.94;4941810;29;20059;-69
2021/08/09 07:53:11;;;;;;;9.55;3.13;;;;;;;-144.51;100.00;69251.94;4945994;28;20047;-70
2021/08/09 07:55:57;;;;;;;7.60;2.72;;;;;;;-144.51;100.00;69251.94;4946422;28;20043;-70
2021/08/09 07:58:42;;;;;;;26.60;4.53;;;;;;;-144.51;100.00;69251.94;4973048;28;20526;-70
2021/08/09 08:01:27;;;;;;;15.98;3.63;;;;;;;-144.51;100.00;69251.94;4961684;28;20042;-69
2021/08/09 08:04:12;;;;;;;11.32;3.55;;;;;;;-144.51;100.00;69251.94;4946459;28;20047;-69
2021/08/09 08:06:58;;;;;;;14.45;3.80;;;;;;;-144.51;100.00;69251.94;4959912;28;20039;-69
2021/08/09 08:09:43;;;;;;;16.25;3.80;;;;;;;-144.51;100.00;69251.94;4958798;28;20046;-70
2021/08/09 08:12:29;;;;;;;7.82;2.67;;;;;;;-144.51;100.00;69251.94;4935528;28;20047;-69
2021/08/09 08:15:14;;;;;;;12.07;2.35;;;;;;;-144.51;100.00;69251.94;4933525;28;20048;-69
2021/08/09 08:18:00;;;;;;;5.43;2.95;;;;;;;-144.51;100.00;69251.94;4975149;28;20404;-70
2021/08/09 08:20:47;;;;;;;15.00;2.70;;;;;;;-144.51;100.00;69251.94;4972028;28;20043;-69
2021/08/09 08:23:32;;;;;;;9.65;3.30;;;;;;;-144.51;100.00;69251.94;4953029;28;20058;-70
2021/08/09 08:26:17;;;;;;;8.57;2.72;;;;;;;-144.51;100.00;69251.94;4986085;28;20042;-70
2021/08/09 08:29:02;;;;;;;9.77;2.00;;;;;;;-144.51;100.00;69251.94;4982861;28;20042;-70
2021/08/09 08:31:48;;;;;;;6.13;1.73;;;;;;;-144.51;100.00;69251.94;4985524;28;20420;-69
2021/08/09 08:34:33;;;;;;;7.45;2.40;;;;;;;-144.51;100.00;69251.94;4960158;28;20585;-70
2021/08/09 08:37:19;;;;;;;4.22;2.00;;;;;;;-144.51;100.00;69251.94;4966435;28;20046;-69
2021/08/09 08:40:04;;;;;;;18.95;4.28;;;;;;;-144.51;100.00;69251.94;4978043;28;20042;-69
2021/08/09 08:42:54;;;;;;;5.95;1.90;;;;;;;-144.51;100.00;69251.94;4979098;28;20038;-69
2021/08/09 08:45:39;;;;;;;13.35;2.97;;;;;;;-144.51;100.00;69251.94;4984002;28;20042;-69
2021/08/09 08:48:26;;;;;;;39.92;7.57;;;;;;;-144.51;100.00;69251.94;4990617;28;20046;-69
2021/08/09 08:51:11;;;;;;;17.33;3.92;;;;;;;-144.51;100.00;69251.94;4989662;28;20039;-70
2021/08/09 08:53:55;;;;;;;8.00;2.42;;;;;;;-144.51;100.00;69251.94;4950128;28;20050;-69
2021/08/09 08:56:42;;;;;;;31.92;6.82;;;;;;;-144.51;100.00;69251.94;4991119;28;20046;-70
2021/08/09 08:59:27;;;;;;;45.95;8.23;;;;;;;-144.51;100.00;69251.94;4998548;28;20407;-70
2021/08/09 09:02:32;;;;;;;16.27;3.88;;;;;;;-144.51;100.00;69251.94;4972224;28;20046;-70
2021/08/09 09:05:19;;;;;;;5.85;1.60;;;;;;;-144.51;100.00;69251.94;4987676;28;20412;-70
2021/08/09 09:08:05;;;;;;;11.73;2.38;;;;;;;-144.51;100.00;69251.94;4979300;28;20051;-68
2021/08/09 09:10:49;;;;;;;4.90;1.63;;;;;;;-144.51;100.00;69251.94;4988859;28;20065;-69
2021/08/09 09:13:35;;;;;;;24.15;2.83;;;;;;;-144.51;100.00;69251.94;4991757;28;20042;-70
2021/08/09 09:16:19;;;;;;;6.00;1.67;;;;;;;-144.51;100.00;69251.94;4982341;28;20042;-70
2021/08/09 09:19:04;;;;;;;6.13;1.83;;;;;;;-144.51;100.00;69251.94;4982127;28;20038;-69
2021/08/09 09:21:49;;;;;;;8.20;1.30;;;;;;;-144.51;100.00;69251.94;4977441;28;20065;-69
2021/08/09 09:24:36;;;;;;;4.10;1.60;;;;;;;-144.51;100.00;69251.94;4972880;28;20039;-68
2021/08/09 09:27:32;;;;;;;5.88;1.38;;;;;;;-144.51;100.00;69251.94;4980823;28;20042;-69
2021/08/09 09:30:30;;;;;;;9.55;2.28;;;;;;;-144.51;100.00;69251.94;4982270;28;20039;-68
2021/08/09 09:33:14;;;;;;;5.85;1.17;;;;;;;-144.51;100.00;69251.94;4978156;28;20397;-68
2021/08/09 09:36:04;;;;;;;4.75;1.40;;;;;;;-144.51;100.00;69251.94;4984367;28;20050;-68
2021/08/09 09:38:52;;;;;;;7.00;2.42;;;;;;;-144.51;100.00;69251.94;4991462;28;20409;-68
2021/08/09 09:41:37;;;;;;;4.28;1.23;;;;;;;-144.51;100.00;69251.94;4964438;28;20047;-69
2021/08/09 09:44:24;;;;;;;3.70;1.08;;;;;;;-144.51;100.00;69251.94;4970937;28;21613;-68
2021/08/09 09:47:24;;;;;;;5.35;1.35;;;;;;;-144.51;100.00;69251.94;4972776;28;20038;-71
2021/08/09 09:50:24;;;;;;;5.80;1.58;;;;;;;-144.51;100.00;69251.94;4973145;28;20050;-71
2021/08/09 09:53:22;;;;;;;25.27;6.45;;;;;;;-144.51;100.00;69251.94;4969866;28;20042;-69
2021/08/09 09:56:09;;;;;;;46.92;9.10;;;;;;;-144.51;100.00;69251.94;4974208;28;20042;-69
2021/08/09 09:58:56;;;;;;;8.07;1.77;;;;;;;-144.51;100.00;69251.94;4974574;28;20039;-69
2021/08/09 10:01:41;;;;;;;14.65;4.18;;;;;;;-144.51;100.00;69251.94;4981577;28;20042;-69
2021/08/09 10:04:26;;;;;;;38.25;8.98;;;;;;;-144.51;100.00;69251.94;4990918;28;20646;-69
2021/08/09 10:07:12;;;;;;;28.30;5.05;;;;;;;-144.51;100.00;69251.94;4995797;28;20042;-70
2021/08/09 10:09:59;;;;;;;3.13;1.35;;;;;;;-144.51;100.00;69251.94;4991888;28;20046;-70
2021/08/09 10:12:48;;;;;;;16.05;4.53;;;;;;;-144.51;100.00;69251.94;4981250;28;20042;-69
2021/08/09 10:15:34;;;;;;;4.93;1.40;;;;;;;-144.51;100.00;69251.94;4999433;28;20046;-70
2021/08/09 10:18:33;;;;;;;7.15;1.38;;;;;;;-144.51;100.00;69251.94;4996432;28;20081;-70
2021/08/09 10:21:19;;;;;;;5.88;1.52;;;;;;;-144.51;100.00;69251.94;4989790;28;20043;-70
2021/08/09 10:24:04;;;;;;;9.85;2.40;;;;;;;-144.51;100.00;69251.94;4998153;28;20030;-70
2021/08/09 10:26:49;;;;;;;3.03;1.05;;;;;;;-144.51;100.00;69251.94;4995627;28;20038;-70
2021/08/09 10:29:54;;;;;;;8.10;1.30;;;;;;;-144.51;100.00;69251.94;4991331;28;20042;-70
2021/08/09 10:32:52;;;;;;;14.63;1.58;;;;;;;-144.51;100.00;69251.94;4994904;28;20054;-70
2021/08/09 10:35:47;;;;;;;3.30;1.10;;;;;;;-144.51;100.00;69251.94;4994865;28;20042;-70
2021/08/09 10:38:36;;;;;;;2.70;1.33;;;;;;;-144.51;100.00;69251.94;4995466;28;20039;-70
2021/08/09 10:41:28;;;;;;;8.90;1.50;;;;;;;-144.51;100.00;69251.94;4993422;28;20042;-70
2021/08/09 10:44:13;;;;;;;4.30;1.20;;;;;;;-144.51;100.00;69251.94;4991259;28;20038;-70
2021/08/09 10:46:58;;;;;;;4.00;0.98;;;;;;;-144.51;100.00;69251.94;4998099;28;20034;-70
2021/08/09 10:49:43;;;;;;;2.03;0.95;;;;;;;-144.51;100.00;69251.94;4978463;28;20038;-71
2021/08/09 10:52:33;;;;;;;2.55;1.20;;;;;;;-144.51;100.00;69251.94;4987952;28;20042;-70
2021/08/09 10:55:30;;;;;;;5.88;1.40;;;;;;;-144.51;100.00;69251.94;4997873;28;20038;-70
2021/08/09 10:58:40;;;;;;;3.30;1.08;;;;;;;-144.51;100.00;69251.94;4995240;28;20039;-69
2021/08/09 11:01:26;;;;;;;4.38;1.42;;;;;;;-144.51;100.00;69251.94;4984656;28;20046;-69
2021/08/09 11:04:12;;;;;;;3.85;1.10;;;;;;;-144.51;100.00;69251.94;4991365;28;20042;-69
2021/08/09 11:06:57;;;;;;;3.70;1.38;;;;;;;-144.51;100.00;69251.94;4994289;28;20031;-69
2021/08/09 11:09:43;;;;;;;8.13;1.40;;;;;;;-144.51;100.00;69251.94;4998168;28;20038;-69
2021/08/09 11:12:28;;;;;;;2.28;1.02;;;;;;;-144.51;100.00;69251.94;4981698;28;20034;-70
2021/08/09 11:15:16;;;;;;;3.65;1.00;;;;;;;-144.51;100.00;69251.94;4989556;28;20038;-69
2021/08/09 11:18:01;;;;;;;5.75;1.20;;;;;;;-144.51;100.00;69251.94;4997755;28;20046;-69
2021/08/09 11:20:46;;;;;;;2.47;0.75;;;;;;;-144.51;100.00;69251.94;4991541;28;20042;-69
2021/08/09 11:23:41;;;;;;;4.32;0.70;;;;;;;-144.51;100.00;69251.94;4990341;28;20034;-69
2021/08/09 11:26:28;;;;;;;3.55;0.77;;;;;;;-144.51;100.00;69251.94;4973159;28;20039;-70
2021/08/09 11:29:14;;;;;;;4.93;1.20;;;;;;;-144.51;100.00;69251.94;4995466;28;20034;-69
2021/08/09 11:31:59;;;;;;;3.60;1.00;;;;;;;-144.51;100.00;69251.94;4986246;28;20046;-69
2021/08/09 11:35:01;;;;;;;8.30;1.02;;;;;;;-144.51;100.00;69251.94;4994949;28;20038;-69
2021/08/09 11:38:03;;;;;;;4.68;1.08;;;;;;;-144.51;100.00;69251.94;4992300;28;20038;-70
2021/08/09 11:40:47;;;;;;;5.10;0.75;;;;;;;-144.51;100.00;69251.94;4997735;28;20034;-70
2021/08/09 11:43:34;;;;;;;5.28;1.20;;;;;;;-144.51;100.00;69251.94;4989676;28;20050;-70
2021/08/09 11:46:19;;;;;;;1.80;0.95;;;;;;;-144.51;100.00;69251.94;4992221;28;20043;-70
2021/08/09 11:49:08;;;;;;;4.70;1.48;;;;;;;-144.51;100.00;69251.94;4975914;28;20042;-70
2021/08/09 11:51:59;;;;;;;2.28;0.85;;;;;;;-144.51;100.00;69251.94;4992429;28;20038;-70
2021/08/09 11:54:44;;;;;;;2.65;1.15;;;;;;;-144.51;100.00;69251.94;4989610;28;20042;-70
2021/08/09 11:57:40;;;;;;;2.00;1.33;;;;;;;-144.51;100.00;69251.94;4997663;28;20034;-70
2021/08/09 12:00:37;;;;;;;3.80;0.90;;;;;;;-144.51;100.00;69251.94;4995481;28;20038;-69
2021/08/09 12:03:25;;;;;;;2.35;0.90;;;;;;;-144.51;100.00;69251.94;4992761;28;20046;-69
2021/08/09 12:06:24;;;;;;;6.18;1.00;;;;;;;-144.51;100.00;69251.94;4981953;28;20485;-70
2021/08/09 12:09:12;;;;;;;3.22;0.82;;;;;;;-144.51;100.00;69251.94;4993106;28;20030;-70
2021/08/09 12:12:00;;;;;;;4.88;0.90;;;;;;;-144.51;100.00;69251.94;4988184;28;20046;-70
2021/08/09 12:14:45;;;;;;;1.70;0.55;;;;;;;-144.51;100.00;69251.94;4990339;28;20043;-70
2021/08/09 12:17:29;;;;;;;1.52;0.70;;;;;;;-144.51;100.00;69251.94;4992626;28;20043;-70
2021/08/09 12:20:17;;;;;;;8.88;1.63;;;;;;;-144.51;100.00;69251.94;4994214;28;20042;-70
2021/08/09 12:23:21;;;;;;;3.28;1.02;;;;;;;-144.51;100.00;69251.94;4995514;28;20050;-70
2021/08/09 12:26:26;;;;;;;5.03;1.08;;;;;;;-144.51;100.00;69251.94;4991989;28;20034;-70
2021/08/09 12:29:22;;;;;;;3.90;1.50;;;;;;;-144.51;100.00;69251.94;4995873;28;20042;-70
2021/08/09 12:32:16;;;;;;;4.63;0.90;;;;;;;-144.51;100.00;69251.94;4987790;28;20038;-70
2021/08/09 12:35:04;;;;;;;1.85;0.90;;;;;;;-144.51;100.00;69251.94;4987145;28;20046;-70
2021/08/09 12:37:55;;;;;;;3.47;1.60;;;;;;;-144.51;100.00;69251.94;4988531;28;20046;-70
2021/08/09 12:40:52;;;;;;;6.88;1.10;;;;;;;-144.51;100.00;69251.94;4979761;28;20050;-70